KQFW

Hongcheon

Hongcheon, South Korea
METAR KQFW 110200Z AUTO 04001KT 8000 HZ OVC033 M04/M10 A3043 RMK A02 TSNO
Observed Flight Rules
Dec-11 @ 02:00 UTC (25 minutes ago) Marginal Visual Flight Rules
Wind Visibility Clouds Conditions
40° at 1 knots 7,998 meters
  • Overcast at 3,300' AGL
  • Haze
Temperatures Readings
Current -4°C / 25°F
Dewpoint -10°C / 14°F
Humidity 63%
Altimeter 30.43" Hg
Pressure 1030 hPa
METAR KQFW 110200Z AUTO 04001KT 8000 HZ OVC033 M04/M10 A3043 RMK A02 TSNO
Observed Flight Rules
Dec-11 @ 02:00 UTC
(25 minutes ago)
MVFR
Wind Visibility
40° at 1 knots 7,998 meters
Clouds
  • Overcast at 3,300' AGL
Conditions
  • Haze
Temperature Dewpoint
-4°C / 25°F -10°C / 14°F
Humidity Altimeter Pressure
63% 30.43" Hg 1030 hPa